createdAt,value
2018-09-03T00:02:28.687Z,3.70
2018-09-03T00:04:56.901Z,3.40
2018-09-03T00:07:25.105Z,3.73
2018-09-03T00:09:53.322Z,3.30
2018-09-03T00:12:21.525Z,3.90
2018-09-03T00:14:49.722Z,3.47
2018-09-03T00:17:17.968Z,3.80
2018-09-03T00:19:46.171Z,3.30
2018-09-03T00:22:14.382Z,3.47
2018-09-03T00:24:42.591Z,3.67
2018-09-03T00:27:10.810Z,3.73
2018-09-03T00:29:39.014Z,3.23
2018-09-03T00:32:12.821Z,3.60
2018-09-03T00:35:46.175Z,3.50
2018-09-03T00:38:19.548Z,3.53
2018-09-03T00:40:53.139Z,3.50
2018-09-03T00:43:26.577Z,3.90
2018-09-03T00:46:00.166Z,3.60
2018-09-03T00:48:28.378Z,4.10
2018-09-03T00:50:56.583Z,3.63
2018-09-03T00:53:25.058Z,3.80
2018-09-03T00:55:53.253Z,3.90
2018-09-03T00:58:21.523Z,3.93
2018-09-03T01:00:49.738Z,3.80
2018-09-03T01:03:17.941Z,3.97
2018-09-03T01:05:46.149Z,3.70
2018-09-03T01:08:14.349Z,3.70
2018-09-03T01:10:42.559Z,3.73
2018-09-03T01:13:10.772Z,3.80
2018-09-03T01:15:38.985Z,3.80
2018-09-03T01:18:07.193Z,3.73
2018-09-03T01:20:35.404Z,3.70
2018-09-03T01:23:03.605Z,4.10
2018-09-03T01:25:31.815Z,4.03
2018-09-03T01:28:00.021Z,3.97
2018-09-03T01:30:28.221Z,3.93
2018-09-03T01:32:56.430Z,3.40
2018-09-03T01:35:24.629Z,3.90
2018-09-03T01:37:52.837Z,3.43
2018-09-03T01:40:21.058Z,4.00
2018-09-03T01:42:49.275Z,4.00
2018-09-03T01:45:17.489Z,3.60
2018-09-03T01:47:45.694Z,3.57
2018-09-03T01:50:13.900Z,4.23
2018-09-03T01:52:42.089Z,3.83
2018-09-03T01:55:10.286Z,3.60
2018-09-03T01:57:38.498Z,3.30
2018-09-03T02:00:06.842Z,3.97
2018-09-03T02:02:35.045Z,3.50
2018-09-03T02:05:03.293Z,3.90
2018-09-03T02:07:31.525Z,4.07
2018-09-03T02:09:59.722Z,3.70
2018-09-03T02:12:27.930Z,4.10
2018-09-03T02:14:56.138Z,4.03
2018-09-03T02:17:24.365Z,3.93
2018-09-03T02:19:52.574Z,3.93
2018-09-03T02:22:20.777Z,3.97
2018-09-03T02:24:48.987Z,3.97
2018-09-03T02:27:17.181Z,3.80
2018-09-03T02:29:45.385Z,4.10
2018-09-03T02:32:13.589Z,4.47
2018-09-03T02:34:41.798Z,4.13
2018-09-03T02:37:10.010Z,3.93
2018-09-03T02:39:38.214Z,4.20
2018-09-03T02:42:06.438Z,4.17
2018-09-03T02:44:34.634Z,3.77
2018-09-03T02:47:03.075Z,3.93
2018-09-03T02:49:31.278Z,4.07
2018-09-03T02:51:59.493Z,4.30
2018-09-03T02:54:27.697Z,4.80
2018-09-03T02:56:55.918Z,4.30
2018-09-03T02:59:24.131Z,4.43
2018-09-03T03:01:52.346Z,4.80
2018-09-03T03:04:20.557Z,4.50
2018-09-03T03:06:48.766Z,5.20
2018-09-03T03:09:16.966Z,4.83
2018-09-03T03:11:45.282Z,4.90
2018-09-03T03:14:13.403Z,4.23
2018-09-03T03:16:41.605Z,4.17
2018-09-03T03:19:09.838Z,4.53
2018-09-03T03:21:38.054Z,4.23
2018-09-03T03:24:06.320Z,4.47
2018-09-03T03:26:34.517Z,4.60
2018-09-03T03:29:02.724Z,4.83
2018-09-03T03:31:30.918Z,4.83
2018-09-03T03:33:59.155Z,4.60
2018-09-03T03:36:27.359Z,4.70
2018-09-03T03:38:55.657Z,4.30
2018-09-03T03:41:23.865Z,4.50
2018-09-03T03:43:52.115Z,4.43
2018-09-03T03:46:20.317Z,4.57
2018-09-03T03:48:48.562Z,4.40
2018-09-03T03:51:17.182Z,4.37
2018-09-03T03:53:45.378Z,4.70
2018-09-03T03:56:13.594Z,4.60
2018-09-03T03:58:41.841Z,4.50
2018-09-03T04:01:10.059Z,4.37
2018-09-03T04:03:38.319Z,4.53
2018-09-03T04:06:06.630Z,4.40
2018-09-03T04:08:34.833Z,4.30
2018-09-03T04:11:03.054Z,4.57
2018-09-03T04:13:31.276Z,4.50
2018-09-03T04:15:59.499Z,4.17
2018-09-03T04:18:27.690Z,4.00
2018-09-03T04:20:56.257Z,4.90
2018-09-03T04:23:24.583Z,4.20
2018-09-03T04:25:52.729Z,4.40
2018-09-03T04:28:20.947Z,4.63
2018-09-03T04:30:49.186Z,4.70
2018-09-03T04:33:17.390Z,4.77
2018-09-03T04:35:45.625Z,4.60
2018-09-03T04:38:13.842Z,4.33
2018-09-03T04:40:42.065Z,4.17
2018-09-03T04:43:10.282Z,4.50
2018-09-03T04:45:38.549Z,4.60
2018-09-03T04:48:06.889Z,4.43
2018-09-03T04:50:34.982Z,4.43
2018-09-03T04:53:03.226Z,4.30
2018-09-03T04:55:31.430Z,4.50
2018-09-03T04:57:59.654Z,4.23
2018-09-03T05:00:27.854Z,4.50
2018-09-03T05:02:56.073Z,4.57
2018-09-03T05:05:24.557Z,5.00
2018-09-03T05:07:52.776Z,5.07
2018-09-03T05:10:21.085Z,4.57
2018-09-03T05:12:49.908Z,5.23
2018-09-03T05:15:18.131Z,4.73
2018-09-03T05:17:47.386Z,4.47
2018-09-03T05:20:15.644Z,4.57
2018-09-03T05:22:43.922Z,5.23
2018-09-03T05:25:12.151Z,5.17
2018-09-03T05:27:40.392Z,5.23
2018-09-03T05:30:09.781Z,5.00
2018-09-03T05:32:38.349Z,5.47
2018-09-03T05:35:07.683Z,4.73
2018-09-03T05:37:35.893Z,5.27
2018-09-03T05:40:04.185Z,5.50
2018-09-03T05:42:33.530Z,5.00
2018-09-03T05:45:02.833Z,4.57
2018-09-03T05:47:31.101Z,5.27
2018-09-03T05:49:59.309Z,4.70
2018-09-03T05:52:27.606Z,5.00
2018-09-03T05:54:56.905Z,4.70
2018-09-03T05:57:25.185Z,4.73
2018-09-03T05:59:53.483Z,4.87
2018-09-03T06:02:21.831Z,5.10
2018-09-03T06:04:50.186Z,4.80
2018-09-03T06:07:18.533Z,5.30
2018-09-03T06:09:46.753Z,4.80
2018-09-03T06:12:15.002Z,5.00
2018-09-03T06:14:44.230Z,5.40
2018-09-03T06:17:13.463Z,5.20
2018-09-03T06:19:41.662Z,5.43
2018-09-03T06:22:10.294Z,4.87
2018-09-03T06:24:38.854Z,5.27
2018-09-03T06:27:07.099Z,4.90
2018-09-03T06:29:36.333Z,5.37
2018-09-03T06:32:04.549Z,4.90
2018-09-03T06:34:32.794Z,5.37
2018-09-03T06:37:01.158Z,5.53
2018-09-03T06:39:29.379Z,5.90
2018-09-03T06:41:57.586Z,5.93
2018-09-03T06:44:25.806Z,5.90
2018-09-03T06:46:54.034Z,5.30
2018-09-03T06:49:22.342Z,5.87
2018-09-03T06:51:50.537Z,5.93
2018-09-03T06:54:18.817Z,5.77
2018-09-03T06:56:47.038Z,5.93
2018-09-03T06:59:15.261Z,6.10
2018-09-03T07:01:43.462Z,5.87
2018-09-03T07:04:11.702Z,6.33
2018-09-03T07:06:39.914Z,6.07
2018-09-03T07:09:09.324Z,6.10
2018-09-03T07:11:37.522Z,5.93
2018-09-03T07:14:05.890Z,6.50
2018-09-03T07:16:34.101Z,6.20
2018-09-03T07:19:02.358Z,5.87
2018-09-03T07:21:30.527Z,6.83
2018-09-03T07:23:58.758Z,6.37
2018-09-03T07:26:26.986Z,5.67
2018-09-03T07:28:55.228Z,6.17
2018-09-03T07:31:23.409Z,5.87
2018-09-03T07:33:51.630Z,6.47
2018-09-03T07:36:19.838Z,6.30
2018-09-03T07:38:48.042Z,6.40
2018-09-03T07:41:16.300Z,6.07
2018-09-03T07:43:44.530Z,6.20
2018-09-03T07:46:12.742Z,6.63
2018-09-03T07:48:40.955Z,5.90
2018-09-03T07:51:09.263Z,5.90
2018-09-03T07:53:37.382Z,7.20
2018-09-03T07:56:05.654Z,6.87
2018-09-03T07:58:33.873Z,6.20
2018-09-03T08:01:02.102Z,6.80
2018-09-03T08:03:30.293Z,6.07
2018-09-03T08:05:58.502Z,6.00
2018-09-03T08:08:26.705Z,5.60
2018-09-03T08:10:54.920Z,5.43
2018-09-03T08:13:28.481Z,5.63
2018-09-03T08:15:56.695Z,5.97
2018-09-03T08:18:24.910Z,6.03
2018-09-03T08:20:53.130Z,6.73
2018-09-03T08:23:21.334Z,6.10
2018-09-03T08:25:49.543Z,6.30
2018-09-03T08:28:17.773Z,6.10
2018-09-03T08:30:45.989Z,6.00
2018-09-03T08:33:14.220Z,6.07
2018-09-03T08:35:42.451Z,5.97
2018-09-03T08:38:10.717Z,6.53
2018-09-03T08:40:38.934Z,6.33
2018-09-03T08:43:07.149Z,5.97
2018-09-03T08:45:35.364Z,6.17
2018-09-03T08:48:03.730Z,6.10
2018-09-03T08:50:31.930Z,6.57
2018-09-03T08:53:00.214Z,5.80
2018-09-03T08:55:28.401Z,6.70
2018-09-03T08:57:56.618Z,6.60
2018-09-03T09:00:25.106Z,6.73
2018-09-03T09:02:53.326Z,6.37
2018-09-03T09:05:21.542Z,5.57
2018-09-03T09:07:49.758Z,5.90
2018-09-03T09:10:17.978Z,6.23
2018-09-03T09:12:46.194Z,7.30
2018-09-03T09:15:14.405Z,7.23
2018-09-03T09:17:42.690Z,6.37
2018-09-03T09:20:10.840Z,6.60
2018-09-03T09:22:39.059Z,6.53
2018-09-03T09:25:07.313Z,7.03
2018-09-03T09:27:35.499Z,6.70
2018-09-03T09:30:04.241Z,6.83
2018-09-03T09:32:32.446Z,7.00
2018-09-03T09:35:06.175Z,7.17
2018-09-03T09:37:34.350Z,6.67
2018-09-03T09:40:02.586Z,7.17
2018-09-03T09:42:30.791Z,7.10
2018-09-03T09:44:59.046Z,6.47
2018-09-03T09:47:27.333Z,7.50
2018-09-03T09:49:55.566Z,7.13
2018-09-03T09:52:23.774Z,7.20
2018-09-03T09:54:52.061Z,7.83
2018-09-03T09:57:20.241Z,7.10
2018-09-03T09:59:48.478Z,7.50
2018-09-03T10:02:16.714Z,7.60
2018-09-03T10:04:44.934Z,6.63
2018-09-03T10:07:13.153Z,7.30
2018-09-03T10:09:41.363Z,8.17
2018-09-03T10:12:09.595Z,8.10
2018-09-03T10:14:37.820Z,7.90
2018-09-03T10:17:06.045Z,7.77
2018-09-03T10:19:34.236Z,8.07
2018-09-03T10:22:02.485Z,7.40
2018-09-03T10:24:30.702Z,7.30
2018-09-03T10:26:58.908Z,7.60
2018-09-03T10:29:27.122Z,7.77
2018-09-03T10:31:55.332Z,7.80
2018-09-03T10:34:23.553Z,7.97
2018-09-03T10:36:51.766Z,7.87
2018-09-03T10:39:20.034Z,7.77
2018-09-03T10:41:48.238Z,7.90
2018-09-03T10:44:16.453Z,8.37
2018-09-03T10:46:45.403Z,8.23
2018-09-03T10:49:13.627Z,7.80
2018-09-03T10:51:41.832Z,7.67
2018-09-03T10:54:10.045Z,8.80
2018-09-03T10:56:38.266Z,8.00
2018-09-03T10:59:06.612Z,8.50
2018-09-03T11:01:34.814Z,8.40
2018-09-03T11:04:03.045Z,8.30
2018-09-03T11:06:31.395Z,7.93
2018-09-03T11:08:59.635Z,8.30
2018-09-03T11:11:27.837Z,7.87
2018-09-03T11:13:56.054Z,8.73
2018-09-03T11:16:24.354Z,7.80
2018-09-03T11:18:52.650Z,7.50
2018-09-03T11:21:20.960Z,9.20
2018-09-03T11:23:49.115Z,8.47
2018-09-03T11:26:17.318Z,8.70
2018-09-03T11:28:45.604Z,7.93
2018-09-03T11:31:13.778Z,8.50
2018-09-03T11:33:41.973Z,9.17
2018-09-03T11:36:10.187Z,8.13
2018-09-03T11:38:38.414Z,10.10
2018-09-03T11:41:06.662Z,9.23
2018-09-03T11:43:34.866Z,8.90
2018-09-03T11:46:03.169Z,8.70
2018-09-03T11:48:31.373Z,9.00
2018-09-03T11:50:59.606Z,10.23
2018-09-03T11:53:27.809Z,9.37
2018-09-03T11:55:56.028Z,8.90
2018-09-03T11:58:24.270Z,9.77
2018-09-03T12:00:56.760Z,8.23
2018-09-03T12:03:24.978Z,9.10
2018-09-03T12:05:53.198Z,9.90
2018-09-03T12:08:21.451Z,10.13
2018-09-03T12:10:49.662Z,9.83
2018-09-03T12:13:17.872Z,9.13
2018-09-03T12:16:20.294Z,8.73
2018-09-03T12:18:48.566Z,9.43
2018-09-03T12:21:17.107Z,9.10
2018-09-03T12:23:45.436Z,8.73
2018-09-03T12:26:13.666Z,8.60
2018-09-03T12:28:41.887Z,9.00
2018-09-03T12:31:10.130Z,8.93
2018-09-03T12:33:38.350Z,9.03
2018-09-03T12:36:06.638Z,9.50
2018-09-03T12:38:35.190Z,9.13
2018-09-03T12:41:03.567Z,8.50
2018-09-03T12:43:31.822Z,9.03
2018-09-03T12:46:01.250Z,9.17
2018-09-03T12:48:30.273Z,9.67
2018-09-03T12:50:58.961Z,8.90
2018-09-03T12:53:28.402Z,8.83
2018-09-03T12:55:56.616Z,8.87
2018-09-03T12:58:24.934Z,8.50
2018-09-03T13:00:53.230Z,8.90
2018-09-03T13:03:21.423Z,9.10
2018-09-03T13:05:49.811Z,8.57
2018-09-03T13:08:18.058Z,8.93
2018-09-03T13:10:46.358Z,8.60
2018-09-03T13:13:14.639Z,8.87
2018-09-03T13:15:42.871Z,8.20
2018-09-03T13:18:11.084Z,8.20
2018-09-03T13:20:39.293Z,8.47
2018-09-03T13:23:07.598Z,8.47
2018-09-03T13:25:35.814Z,9.00
2018-09-03T13:28:04.030Z,8.97
2018-09-03T13:30:32.346Z,10.23
2018-09-03T13:33:00.597Z,9.37
2018-09-03T13:35:28.877Z,9.13
2018-09-03T13:37:57.097Z,9.10
2018-09-03T13:40:25.338Z,9.60
2018-09-03T13:42:53.578Z,9.00
2018-09-03T13:45:21.789Z,8.90
2018-09-03T13:47:50.030Z,8.83
2018-09-03T13:50:18.266Z,10.20
2018-09-03T13:52:46.474Z,9.97
2018-09-03T13:55:14.750Z,10.03
2018-09-03T13:57:42.998Z,8.77
2018-09-03T14:00:12.205Z,9.80
2018-09-03T14:02:40.481Z,9.17
2018-09-03T14:05:08.747Z,9.70
2018-09-03T14:07:36.984Z,10.20
2018-09-03T14:10:05.373Z,9.40
2018-09-03T14:12:33.526Z,9.80
2018-09-03T14:15:01.783Z,10.27
2018-09-03T14:17:30.054Z,10.60
2018-09-03T14:19:58.835Z,10.70
2018-09-03T14:22:26.989Z,11.23
2018-09-03T14:24:55.315Z,11.17
2018-09-03T14:27:23.533Z,10.40
2018-09-03T14:29:51.840Z,10.53
2018-09-03T14:32:20.072Z,10.80
2018-09-03T14:34:48.315Z,11.90
2018-09-03T14:37:16.573Z,9.83
2018-09-03T14:39:44.793Z,10.60
2018-09-03T14:42:13.009Z,11.23
2018-09-03T14:44:41.216Z,11.33
2018-09-03T14:47:09.575Z,10.43
2018-09-03T14:49:37.831Z,9.90
2018-09-03T14:52:06.082Z,10.20
2018-09-03T14:54:36.410Z,10.50
2018-09-03T14:57:04.686Z,10.53
2018-09-03T14:59:32.915Z,11.10
2018-09-03T15:02:01.195Z,10.70
2018-09-03T15:04:29.449Z,9.50
2018-09-03T15:06:57.666Z,9.57
2018-09-03T15:09:25.916Z,10.40
2018-09-03T15:11:54.138Z,10.23
2018-09-03T15:14:22.369Z,10.63
2018-09-03T15:16:50.593Z,10.40
2018-09-03T15:19:18.817Z,9.50
2018-09-03T15:21:47.044Z,9.63
2018-09-03T15:24:15.273Z,9.80
2018-09-03T15:26:43.640Z,10.50
2018-09-03T15:29:11.733Z,10.23
2018-09-03T15:31:39.940Z,9.63
2018-09-03T15:34:08.149Z,9.90
2018-09-03T15:36:36.460Z,11.10
2018-09-03T15:39:08.632Z,11.17
2018-09-03T15:41:36.894Z,9.77
2018-09-03T15:44:05.359Z,8.83
2018-09-03T15:46:33.722Z,10.07
2018-09-03T15:49:02.055Z,9.40
2018-09-03T15:51:30.259Z,8.93
2018-09-03T15:53:58.565Z,8.97
2018-09-03T15:56:26.785Z,10.40
2018-09-03T15:58:55.030Z,8.67
2018-09-03T16:01:23.298Z,9.20
2018-09-03T16:03:51.518Z,8.70
2018-09-03T16:06:19.820Z,8.67
2018-09-03T16:08:49.117Z,8.13
2018-09-03T16:11:17.412Z,8.27
2018-09-03T16:13:45.798Z,8.87
2018-09-03T16:16:14.050Z,8.50
2018-09-03T16:18:42.255Z,8.13
2018-09-03T16:21:10.459Z,8.40
2018-09-03T16:23:38.767Z,9.13
2018-09-03T16:26:07.013Z,7.73
2018-09-03T16:28:35.227Z,8.17
2018-09-03T16:31:03.451Z,8.10
2018-09-03T16:33:31.694Z,8.40
2018-09-03T16:36:00.035Z,8.07
2018-09-03T16:38:28.185Z,8.03
2018-09-03T16:40:56.406Z,8.20
2018-09-03T16:43:24.614Z,7.73
2018-09-03T16:45:53.058Z,8.20
2018-09-03T16:48:21.277Z,8.53
2018-09-03T16:50:49.501Z,8.13
2018-09-03T16:53:17.737Z,8.30
2018-09-03T16:55:45.951Z,10.30
2018-09-03T16:58:14.194Z,8.80
2018-09-03T17:00:42.427Z,8.90
2018-09-03T17:03:10.679Z,9.90
2018-09-03T17:05:38.953Z,10.27
2018-09-03T17:08:07.368Z,10.30
2018-09-03T17:10:35.485Z,9.50
2018-09-03T17:13:03.711Z,9.83
2018-09-03T17:15:31.935Z,11.43
2018-09-03T17:18:00.580Z,11.80
2018-09-03T17:20:28.870Z,10.20
2018-09-03T17:22:57.030Z,9.70
2018-09-03T17:25:25.234Z,10.37
2018-09-03T17:27:53.481Z,11.10
2018-09-03T17:30:21.802Z,10.87
2018-09-03T17:32:50.030Z,11.43
2018-09-03T17:35:18.252Z,11.50
2018-09-03T17:37:46.463Z,10.73
2018-09-03T17:40:14.785Z,10.40
2018-09-03T17:42:43.090Z,10.83
2018-09-03T17:45:11.429Z,11.23
2018-09-03T17:47:40.213Z,10.67
2018-09-03T17:50:08.510Z,13.00
2018-09-03T17:52:36.718Z,11.37
2018-09-03T17:55:04.974Z,13.00
2018-09-03T17:57:33.194Z,12.10
2018-09-03T18:00:01.454Z,12.20
2018-09-03T18:02:29.668Z,11.87
2018-09-03T18:04:58.085Z,11.60
2018-09-03T18:07:26.385Z,10.77
2018-09-03T18:09:54.701Z,12.27
2018-09-03T18:12:22.914Z,12.97
2018-09-03T18:14:51.133Z,11.73
2018-09-03T18:17:19.328Z,11.10
2018-09-03T18:19:47.556Z,11.70
2018-09-03T18:22:15.762Z,13.07
2018-09-03T18:24:43.996Z,11.10
2018-09-03T18:27:12.279Z,12.53
2018-09-03T18:29:40.544Z,13.07
2018-09-03T18:32:08.773Z,12.73
2018-09-03T18:34:37.003Z,15.17
2018-09-03T18:37:05.484Z,12.97
2018-09-03T18:39:33.803Z,14.17
2018-09-03T18:42:02.166Z,14.43
2018-09-03T18:44:30.350Z,14.30
2018-09-03T18:46:58.598Z,13.83
2018-09-03T18:49:26.800Z,14.30
2018-09-03T18:51:55.015Z,15.77
2018-09-03T18:54:23.285Z,16.73
2018-09-03T18:56:51.497Z,17.53
2018-09-03T18:59:19.749Z,15.70
2018-09-03T19:01:47.993Z,15.20
2018-09-03T19:04:16.273Z,17.23
2018-09-03T19:06:44.497Z,17.63
2018-09-03T19:09:12.735Z,16.33
2018-09-03T19:11:40.974Z,15.53
2018-09-03T19:14:09.565Z,14.63
2018-09-03T19:16:37.769Z,20.07
2018-09-03T19:19:06.034Z,19.73
2018-09-03T19:21:34.345Z,18.00
2018-09-03T19:24:02.546Z,18.17
2018-09-03T19:26:30.766Z,17.87
2018-09-03T19:28:58.974Z,19.63
2018-09-03T19:31:27.297Z,21.33
2018-09-03T19:33:55.525Z,18.47
2018-09-03T19:36:23.763Z,22.07
2018-09-03T19:38:53.070Z,21.17
2018-09-03T19:41:21.306Z,21.43
2018-09-03T19:43:49.520Z,15.73
2018-09-03T19:46:17.750Z,20.70
2018-09-03T19:48:45.973Z,19.90
2018-09-03T19:51:14.177Z,24.50
2018-09-03T19:53:43.426Z,22.90
2018-09-03T19:56:11.647Z,24.17
2018-09-03T19:58:39.877Z,23.73
2018-09-03T20:01:08.084Z,24.07
2018-09-03T20:03:37.197Z,25.67
2018-09-03T20:06:05.500Z,23.23
2018-09-03T20:08:34.971Z,22.23
2018-09-03T20:11:03.214Z,24.40
2018-09-03T20:13:31.826Z,26.97
2018-09-03T20:16:00.046Z,21.90
2018-09-03T20:18:28.389Z,27.93
2018-09-03T20:20:56.678Z,24.97
2018-09-03T20:23:24.969Z,31.40
2018-09-03T20:25:55.262Z,30.70
2018-09-03T20:28:24.945Z,30.97
2018-09-03T20:30:53.202Z,29.60
2018-09-03T20:33:21.720Z,26.50
2018-09-03T20:35:50.018Z,29.77
2018-09-03T20:38:19.766Z,28.20
2018-09-03T20:40:48.083Z,24.83
2018-09-03T20:43:16.372Z,23.83
2018-09-03T20:45:44.689Z,22.67
2018-09-03T20:48:13.091Z,21.87
2018-09-03T20:50:41.372Z,21.50
2018-09-03T20:53:09.595Z,19.07
2018-09-03T20:55:37.934Z,17.67
2018-09-03T20:58:06.354Z,20.80
2018-09-03T21:00:34.611Z,19.63
2018-09-03T21:03:02.881Z,21.43
2018-09-03T21:05:31.150Z,20.07
2018-09-03T21:07:59.362Z,20.37
2018-09-03T21:10:27.582Z,21.37
2018-09-03T21:12:55.830Z,21.63
2018-09-03T21:15:24.160Z,19.60
2018-09-03T21:17:53.499Z,17.83
2018-09-03T21:20:21.741Z,22.10
2018-09-03T21:22:49.959Z,21.10
2018-09-03T21:25:18.262Z,22.17
2018-09-03T21:27:46.478Z,20.57
2018-09-03T21:30:14.685Z,22.80
2018-09-03T21:32:42.930Z,20.77
2018-09-03T21:35:11.257Z,19.87
2018-09-03T21:37:39.583Z,18.60
2018-09-03T21:40:08.073Z,19.70
2018-09-03T21:42:36.350Z,18.27
2018-09-03T21:45:04.653Z,19.43
2018-09-03T21:47:32.882Z,17.30
2018-09-03T21:50:01.089Z,20.73
2018-09-03T21:52:29.346Z,23.23
2018-09-03T21:54:57.583Z,19.60
2018-09-03T21:57:25.806Z,17.23
2018-09-03T21:59:54.034Z,19.37
2018-09-03T22:02:22.627Z,21.30
2018-09-03T22:04:50.860Z,20.13
2018-09-03T22:07:19.130Z,19.57
2018-09-03T22:09:47.365Z,18.57
2018-09-03T22:12:15.642Z,19.00
2018-09-03T22:14:43.855Z,21.43
2018-09-03T22:17:12.078Z,20.03
2018-09-03T22:19:40.311Z,20.17
2018-09-03T22:22:08.688Z,24.83
2018-09-03T22:24:36.933Z,21.30
2018-09-03T22:27:06.610Z,18.60
2018-09-03T22:29:34.857Z,20.40
2018-09-03T22:32:03.119Z,19.47
2018-09-03T22:34:31.526Z,18.67
2018-09-03T22:36:59.754Z,23.43
2018-09-03T22:39:27.978Z,24.03
2018-09-03T22:41:56.207Z,25.13
2018-09-03T22:44:24.470Z,24.97
2018-09-03T22:46:52.761Z,21.87
2018-09-03T22:49:20.994Z,22.70
2018-09-03T22:51:49.266Z,25.63
2018-09-03T22:54:17.488Z,23.57
2018-09-03T22:56:45.693Z,22.80
2018-09-03T22:59:14.914Z,23.23
2018-09-03T23:01:43.210Z,20.00
2018-09-03T23:04:11.438Z,20.83
2018-09-03T23:06:39.696Z,21.33
2018-09-03T23:09:08.329Z,24.93
2018-09-03T23:11:36.593Z,21.37
2018-09-03T23:14:05.525Z,22.03
2018-09-03T23:16:33.738Z,22.47
2018-09-03T23:19:01.949Z,21.77
2018-09-03T23:21:30.189Z,23.53
2018-09-03T23:23:58.405Z,22.17
2018-09-03T23:26:26.878Z,21.80
2018-09-03T23:28:55.156Z,21.60
2018-09-03T23:31:23.430Z,23.30
2018-09-03T23:33:51.708Z,19.97
2018-09-03T23:36:19.937Z,19.83
2018-09-03T23:38:48.173Z,20.43
2018-09-03T23:41:16.406Z,21.47
2018-09-03T23:43:44.617Z,20.27
2018-09-03T23:46:12.825Z,22.80
2018-09-03T23:48:41.077Z,20.57
2018-09-03T23:51:09.355Z,25.63
2018-09-03T23:53:37.573Z,23.93
2018-09-03T23:56:05.780Z,21.87
2018-09-03T23:58:34.034Z,23.80
